Time;durP1;ratioP1;P1;durP2;ratioP2;P2;SDS_P1;SDS_P2;PMS_P1;PMS_P2;Temp;Humidity;BMP_temperature;BMP_pressure;BME280_temperature;BME280_humidity;BME280_pressure;Samples;Min_cycle;Max_cycle;Signal;HPM_P1;HPM_P2
2022/07/13 00:01:05;;;;;;;18.25;10.70;;;;;;;20.76;79.51;102044.28;4894199;29;20124;-72
2022/07/13 00:03:30;;;;;;;17.17;10.65;;;;;;;20.75;79.44;102042.66;4894035;29;20047;-72
2022/07/13 00:05:55;;;;;;;18.67;11.38;;;;;;;20.85;78.98;102055.59;4893903;29;20067;-72
2022/07/13 00:08:21;;;;;;;18.10;12.63;;;;;;;20.90;78.63;102054.91;4894013;29;20047;-72
2022/07/13 00:10:46;;;;;;;22.23;11.75;;;;;;;20.89;83.17;102051.38;4894091;29;20032;-72
2022/07/13 00:13:11;;;;;;;20.77;11.30;;;;;;;20.81;83.34;102040.88;4893993;29;20037;-72
2022/07/13 00:15:37;;;;;;;18.35;10.57;;;;;;;20.67;84.33;102028.59;4894037;29;20032;-72
2022/07/13 00:18:02;;;;;;;16.23;11.40;;;;;;;20.67;83.52;102028.59;4894112;29;20041;-72
2022/07/13 00:20:28;;;;;;;18.10;11.25;;;;;;;20.66;85.34;102033.19;4896094;29;20044;-72
2022/07/13 00:22:54;;;;;;;17.25;10.38;;;;;;;20.64;81.46;102015.53;4897528;29;20025;-72
2022/07/13 00:25:20;;;;;;;18.38;10.70;;;;;;;20.61;83.12;102008.69;4897587;29;20507;-72
2022/07/13 00:27:46;;;;;;;17.80;10.52;;;;;;;20.62;80.69;102002.22;4897544;29;20033;-72
2022/07/13 00:30:11;;;;;;;17.65;10.70;;;;;;;20.63;80.38;102003.88;4897512;29;20064;-72
2022/07/13 00:32:36;;;;;;;22.30;11.65;;;;;;;20.62;78.88;101998.66;4897541;29;20071;-72
2022/07/13 00:35:02;;;;;;;21.88;13.07;;;;;;;20.64;79.29;102002.78;4897549;29;20036;-72
2022/07/13 00:37:28;;;;;;;19.00;12.00;;;;;;;20.63;80.03;101995.72;4897297;29;20100;-72
2022/07/13 00:39:53;;;;;;;18.00;10.88;;;;;;;20.60;81.85;101989.97;4897388;29;20489;-72
2022/07/13 00:42:18;;;;;;;17.58;11.07;;;;;;;20.56;81.90;101985.00;4897227;29;20500;-72
2022/07/13 00:44:44;;;;;;;21.15;11.57;;;;;;;20.55;79.70;101977.94;4897483;29;20477;-72
2022/07/13 00:47:10;;;;;;;20.83;11.35;;;;;;;20.48;79.62;101971.75;4897367;29;20036;-72
2022/07/13 00:49:36;;;;;;;18.83;10.57;;;;;;;20.53;82.73;101979.19;4897095;29;20150;-72
2022/07/13 00:52:02;;;;;;;20.13;11.52;;;;;;;20.47;82.66;101974.72;4897115;29;20040;-72
2022/07/13 00:54:29;;;;;;;16.20;10.52;;;;;;;20.33;83.29;101966.81;4897226;29;20037;-72
2022/07/13 00:56:55;;;;;;;17.63;10.93;;;;;;;20.32;82.89;101973.28;4896974;29;20047;-72
2022/07/13 00:59:21;;;;;;;19.05;12.48;;;;;;;20.31;84.73;101968.94;4897148;29;20040;-72
2022/07/13 01:01:47;;;;;;;20.55;11.18;;;;;;;20.20;83.74;101956.22;4897103;29;20171;-72
2022/07/13 01:04:12;;;;;;;17.65;11.73;;;;;;;20.26;84.13;101966.09;4896657;29;20059;-72
2022/07/13 01:06:38;;;;;;;18.95;11.55;;;;;;;20.20;84.50;101955.38;4896559;29;20115;-72
2022/07/13 01:09:03;;;;;;;17.30;11.07;;;;;;;20.16;84.91;101957.72;4896921;29;20037;-72
2022/07/13 01:11:29;;;;;;;19.60;12.25;;;;;;;20.11;83.64;101939.47;4896876;29;20031;-72
2022/07/13 01:13:57;;;;;;;18.20;10.68;;;;;;;20.13;83.39;101941.94;4896845;29;20121;-72
2022/07/13 01:16:22;;;;;;;18.85;11.73;;;;;;;20.16;83.26;101954.19;4896784;29;20034;-72
2022/07/13 01:18:49;;;;;;;22.85;12.50;;;;;;;20.15;83.56;101950.66;4896775;29;20040;-72
2022/07/13 01:21:15;;;;;;;18.10;11.10;;;;;;;20.20;81.47;101950.78;4896576;29;20059;-67
2022/07/13 01:23:41;;;;;;;20.17;11.77;;;;;;;20.22;82.48;101945.94;4896240;29;20993;-67
2022/07/13 01:26:07;;;;;;;22.35;12.25;;;;;;;20.18;84.58;101944.78;4896593;29;20037;-67
2022/07/13 01:28:33;;;;;;;20.83;12.23;;;;;;;20.20;84.71;101948.09;4896643;29;20067;-67
2022/07/13 01:30:58;;;;;;;18.52;11.07;;;;;;;20.20;84.37;101949.94;4896608;29;20028;-67
2022/07/13 01:33:24;;;;;;;23.33;13.10;;;;;;;20.18;84.10;101939.38;4895726;29;20042;-67
2022/07/13 01:35:49;;;;;;;20.20;11.98;;;;;;;20.14;83.68;101940.88;4896485;29;20065;-67
2022/07/13 01:38:15;;;;;;;22.77;12.63;;;;;;;20.15;84.63;101937.13;4896373;29;20028;-67
2022/07/13 01:40:43;;;;;;;21.52;13.10;;;;;;;20.16;85.66;101941.47;4896341;29;20115;-67
2022/07/13 01:43:09;;;;;;;20.20;13.43;;;;;;;20.16;85.80;101935.25;4896365;29;20038;-67
2022/07/13 01:45:34;;;;;;;18.83;10.98;;;;;;;20.15;86.53;101945.25;4879372;29;20857;-67
2022/07/13 01:47:59;;;;;;;19.25;13.63;;;;;;;20.12;86.64;101945.69;4896272;29;20036;-67
2022/07/13 01:50:27;;;;;;;19.42;12.32;;;;;;;20.05;84.35;101940.41;4879201;29;20037;-67
2022/07/13 01:52:53;;;;;;;20.20;12.15;;;;;;;19.93;84.18;101926.00;4896111;29;20115;-67
2022/07/13 01:55:19;;;;;;;19.25;11.65;;;;;;;20.03;84.55;101936.28;4896112;29;20112;-67
2022/07/13 01:57:44;;;;;;;20.92;12.75;;;;;;;19.99;86.70;101932.38;4896064;29;20473;-67
2022/07/13 02:00:14;;;;;;;19.88;12.32;;;;;;;19.95;86.35;101926.63;4895888;29;20560;-67
2022/07/13 02:02:40;;;;;;;20.40;13.30;;;;;;;19.88;86.93;101929.41;4895957;29;20063;-67
2022/07/13 02:05:06;;;;;;;17.90;11.68;;;;;;;19.91;87.04;101938.94;4895685;29;20489;-67
2022/07/13 02:07:31;;;;;;;20.02;12.68;;;;;;;19.93;86.37;101934.94;4895881;29;20119;-67
2022/07/13 02:09:56;;;;;;;19.90;12.45;;;;;;;19.95;87.85;101931.22;4895776;29;20040;-68
2022/07/13 02:12:22;;;;;;;18.95;12.07;;;;;;;19.90;85.83;101926.47;4895913;29;20048;-67
2022/07/13 02:14:48;;;;;;;19.42;12.40;;;;;;;19.87;88.14;101924.25;4895493;29;20434;-67
2022/07/13 02:17:14;;;;;;;20.67;12.70;;;;;;;19.87;86.99;101925.06;4895615;29;20041;-67
2022/07/13 02:19:39;;;;;;;22.58;14.23;;;;;;;19.87;86.49;101924.25;4895578;29;20088;-67
2022/07/13 02:22:05;;;;;;;20.33;12.77;;;;;;;19.86;87.12;101909.88;4895423;29;20091;-67
2022/07/13 02:24:30;;;;;;;18.58;11.88;;;;;;;19.90;87.95;101919.19;4895270;29;20029;-67
2022/07/13 02:26:55;;;;;;;20.08;12.55;;;;;;;19.85;86.96;101910.94;4895303;29;20042;-67
2022/07/13 02:29:21;;;;;;;19.08;12.98;;;;;;;19.86;87.67;101904.47;4895483;29;20044;-67
2022/07/13 02:31:46;;;;;;;22.77;13.02;;;;;;;19.82;87.17;101914.09;4895551;29;20063;-67
2022/07/13 02:34:11;;;;;;;20.80;12.73;;;;;;;19.78;87.11;101918.34;4895318;29;20036;-67
2022/07/13 02:36:37;;;;;;;17.90;12.13;;;;;;;19.83;86.81;101917.63;4895289;29;20036;-72
2022/07/13 02:39:03;;;;;;;24.08;13.93;;;;;;;19.80;87.40;101899.97;4895303;29;20047;-72
2022/07/13 02:41:28;;;;;;;23.30;13.73;;;;;;;19.81;88.26;101908.94;4895246;29;20181;-72
2022/07/13 02:43:53;;;;;;;19.73;13.00;;;;;;;19.79;88.16;101902.94;4895129;29;20029;-72
2022/07/13 02:46:18;;;;;;;19.17;13.20;;;;;;;19.76;87.69;101901.50;4895298;29;20040;-72
2022/07/13 02:48:44;;;;;;;19.85;13.55;;;;;;;19.76;86.84;101900.69;4896153;29;20523;-72
2022/07/13 02:51:09;;;;;;;19.73;13.18;;;;;;;19.77;86.33;101894.22;4896184;29;20028;-72
2022/07/13 02:53:34;;;;;;;21.23;12.77;;;;;;;19.77;84.52;101886.91;4895307;29;20028;-72
2022/07/13 02:56:00;;;;;;;21.90;13.10;;;;;;;19.81;83.95;101888.09;4895026;29;20089;-72
2022/07/13 02:58:25;;;;;;;21.15;12.55;;;;;;;19.80;82.29;101872.91;4894842;29;20087;-72
2022/07/13 03:00:51;;;;;;;18.75;12.55;;;;;;;19.87;83.04;101878.22;4894895;29;20025;-72
2022/07/13 03:03:16;;;;;;;21.05;14.00;;;;;;;19.89;83.39;101884.22;4894584;29;20047;-72
2022/07/13 03:05:42;;;;;;;20.27;11.73;;;;;;;19.92;82.80;101886.47;4894595;29;20404;-72
2022/07/13 03:08:07;;;;;;;19.42;12.10;;;;;;;19.91;81.26;101892.91;4894833;29;20524;-72
2022/07/13 03:10:32;;;;;;;21.65;11.77;;;;;;;19.94;81.31;101892.47;4894850;29;20048;-72
2022/07/13 03:12:58;;;;;;;19.08;11.82;;;;;;;19.94;80.43;101892.47;4894644;29;20024;-72
2022/07/13 03:15:24;;;;;;;20.40;11.88;;;;;;;19.95;80.02;101894.13;4878192;29;20060;-72
2022/07/13 03:17:50;;;;;;;18.48;11.35;;;;;;;19.98;79.04;101893.63;4894479;29;20437;-72
2022/07/13 03:20:15;;;;;;;19.25;11.23;;;;;;;20.00;78.67;101893.41;4894585;29;20065;-72
2022/07/13 03:22:40;;;;;;;18.85;10.38;;;;;;;20.02;78.80;101886.72;4894506;29;20071;-72
2022/07/13 03:25:06;;;;;;;17.75;9.70;;;;;;;19.99;77.98;101870.94;4894367;29;20044;-72
2022/07/13 03:27:32;;;;;;;17.42;9.48;;;;;;;20.07;77.97;101872.47;4894149;29;20070;-72
2022/07/13 03:29:57;;;;;;;14.27;9.32;;;;;;;20.05;77.02;101861.88;4894445;29;20115;-72
2022/07/13 03:32:22;;;;;;;14.75;8.65;;;;;;;20.13;76.80;101872.34;4894485;29;20037;-72
2022/07/13 03:34:48;;;;;;;14.90;8.13;;;;;;;20.18;76.33;101868.13;4877476;29;20035;-72
2022/07/13 03:37:13;;;;;;;13.23;7.70;;;;;;;20.22;75.25;101874.69;4894397;29;20042;-72
2022/07/13 03:39:39;;;;;;;11.60;7.07;;;;;;;20.27;74.37;101866.69;4894291;29;20032;-72
2022/07/13 03:42:04;;;;;;;12.32;6.75;;;;;;;20.32;73.19;101862.19;4894290;29;20489;-72
2022/07/13 03:44:30;;;;;;;11.95;6.55;;;;;;;20.35;72.71;101864.44;4894343;29;20479;-72
2022/07/13 03:46:55;;;;;;;11.80;6.40;;;;;;;20.40;71.57;101858.31;4894288;29;20032;-72
2022/07/13 03:49:21;;;;;;;12.00;6.57;;;;;;;20.47;71.70;101861.72;4876956;29;20033;-72
2022/07/13 03:51:48;;;;;;;9.20;5.68;;;;;;;20.51;71.42;101867.47;4894158;29;20163;-72
2022/07/13 03:54:14;;;;;;;8.75;5.47;;;;;;;20.54;71.61;101862.44;4893971;29;20051;-72
2022/07/13 03:56:39;;;;;;;9.93;5.80;;;;;;;20.56;71.08;101848.66;4893677;29;20028;-72
2022/07/13 03:59:05;;;;;;;10.25;5.03;;;;;;;20.56;70.80;101844.03;4893868;29;20048;-72
2022/07/13 04:01:31;;;;;;;9.45;4.70;;;;;;;20.60;70.28;101843.59;4893844;29;20044;-72
2022/07/13 04:03:56;;;;;;;7.05;4.20;;;;;;;20.62;69.97;101852.28;4893971;29;20039;-72
2022/07/13 04:06:21;;;;;;;10.63;4.50;;;;;;;20.64;69.87;101859.13;4893898;29;20032;-72
2022/07/13 04:08:47;;;;;;;6.57;4.30;;;;;;;20.66;70.39;101862.41;4894011;29;20119;-72
2022/07/13 04:11:12;;;;;;;7.07;4.30;;;;;;;20.68;70.07;101862.19;4893838;29;20066;-72
2022/07/13 04:13:38;;;;;;;6.57;4.10;;;;;;;20.64;69.30;101852.88;4894062;29;20032;-72
2022/07/13 04:16:03;;;;;;;6.18;3.83;;;;;;;20.70;69.55;101868.19;4877323;29;20028;-72
2022/07/13 04:18:29;;;;;;;8.23;4.47;;;;;;;20.70;69.31;101860.06;4893879;29;20385;-72
2022/07/13 04:20:54;;;;;;;7.18;3.42;;;;;;;20.71;69.10;101845.44;4893498;29;20386;-72
2022/07/13 04:23:19;;;;;;;9.45;4.68;;;;;;;20.71;68.84;101846.25;4894002;29;20708;-72
2022/07/13 04:25:45;;;;;;;6.75;4.55;;;;;;;20.73;69.04;101844.13;4893741;29;20025;-72
2022/07/13 04:28:10;;;;;;;9.27;4.28;;;;;;;20.75;69.05;101846.59;4893587;29;20033;-72
2022/07/13 04:30:35;;;;;;;6.00;4.82;;;;;;;20.75;69.29;101833.03;4893713;29;20407;-72
2022/07/13 04:33:01;;;;;;;8.38;4.22;;;;;;;20.75;69.02;101838.44;4893874;29;20555;-73
2022/07/13 04:35:27;;;;;;;7.85;4.32;;;;;;;20.73;68.81;101840.59;4893819;29;20527;-72
2022/07/13 04:37:52;;;;;;;6.95;4.82;;;;;;;20.76;68.13;101838.22;4893838;29;20124;-72
2022/07/13 04:40:18;;;;;;;8.80;4.78;;;;;;;20.79;68.61;101842.34;4893776;29;20032;-72
2022/07/13 04:42:43;;;;;;;5.35;3.97;;;;;;;20.79;68.46;101834.22;4893499;29;20033;-72
2022/07/13 04:45:09;;;;;;;9.63;4.07;;;;;;;20.85;68.43;101837.84;4893796;29;20488;-72
2022/07/13 04:47:36;;;;;;;5.38;3.13;;;;;;;20.88;68.38;101837.34;4893664;29;20197;-72
2022/07/13 04:50:01;;;;;;;7.18;3.70;;;;;;;20.92;68.20;101830.41;4893893;29;20037;-72
2022/07/13 04:52:27;;;;;;;7.05;3.08;;;;;;;20.93;67.22;101832.03;4893740;29;20400;-72
2022/07/13 04:54:52;;;;;;;7.28;4.05;;;;;;;21.00;67.18;101840.84;4876850;29;20067;-72
2022/07/13 04:57:18;;;;;;;6.43;3.55;;;;;;;21.05;67.14;101848.28;4893681;29;20115;-72
2022/07/13 04:59:43;;;;;;;12.20;3.20;;;;;;;21.07;66.94;101836.13;4893244;29;20071;-72
2022/07/13 05:02:08;;;;;;;12.02;4.40;;;;;;;21.07;66.01;101825.25;4893633;29;20056;-72
2022/07/13 05:04:34;;;;;;;6.47;3.45;;;;;;;21.15;66.39;101826.75;4893429;29;20081;-72
2022/07/13 05:07:00;;;;;;;12.35;3.83;;;;;;;21.20;65.85;101835.00;4894102;29;20032;-72
2022/07/13 05:09:26;;;;;;;8.73;3.15;;;;;;;21.22;65.40;101830.13;4896858;29;20124;-72
2022/07/13 05:11:52;;;;;;;5.93;3.60;;;;;;;21.29;65.35;101833.50;4896845;29;20123;-72
2022/07/13 05:14:17;;;;;;;6.72;3.33;;;;;;;21.30;65.52;101820.75;4896821;29;20033;-72
2022/07/13 05:16:43;;;;;;;6.28;3.67;;;;;;;21.32;65.57;101824.88;4897122;29;20090;-72
2022/07/13 05:19:08;;;;;;;5.47;3.53;;;;;;;21.39;64.36;101824.78;4897872;29;20150;-72
2022/07/13 05:21:34;;;;;;;6.45;3.40;;;;;;;21.44;63.78;101814.00;4896534;29;20068;-72
2022/07/13 05:23:59;;;;;;;6.47;3.13;;;;;;;21.49;63.63;101827.66;4896503;29;20036;-72
2022/07/13 05:26:25;;;;;;;7.57;4.00;;;;;;;21.55;63.84;101832.09;4896700;29;20568;-72
2022/07/13 05:28:50;;;;;;;7.35;3.22;;;;;;;21.60;63.67;101824.03;4896535;29;20049;-72
2022/07/13 05:31:15;;;;;;;6.32;3.00;;;;;;;21.64;63.46;101825.19;4896198;29;20028;-72
2022/07/13 05:33:41;;;;;;;6.88;4.07;;;;;;;21.67;63.46;101823.88;4896423;29;20033;-72
2022/07/13 05:36:06;;;;;;;8.65;3.92;;;;;;;21.67;63.80;101813.84;4896578;29;20067;-72
2022/07/13 05:38:32;;;;;;;7.50;3.65;;;;;;;21.70;63.14;101823.38;4896299;29;20106;-72
2022/07/13 05:40:57;;;;;;;5.45;3.15;;;;;;;21.72;62.92;101831.25;4896271;29;20048;-72
2022/07/13 05:43:23;;;;;;;6.78;3.80;;;;;;;21.73;62.96;101831.03;4879447;29;20070;-72
2022/07/13 05:45:48;;;;;;;5.88;3.67;;;;;;;21.77;63.51;101840.34;4896134;29;20043;-72
2022/07/13 05:48:13;;;;;;;6.53;3.17;;;;;;;21.78;62.49;101844.69;4896255;29;20092;-72
2022/07/13 05:50:39;;;;;;;8.35;4.13;;;;;;;21.76;62.67;101843.28;4896134;29;20040;-72
2022/07/13 05:53:05;;;;;;;9.95;4.70;;;;;;;21.79;62.66;101849.03;4895874;29;20047;-72
2022/07/13 05:55:30;;;;;;;6.57;3.53;;;;;;;21.78;62.75;101843.88;4895934;29;20093;-72
2022/07/13 05:57:55;;;;;;;5.38;3.65;;;;;;;21.75;63.42;101845.19;4895567;29;20579;-72
2022/07/13 06:00:21;;;;;;;6.55;3.53;;;;;;;21.73;63.22;101850.03;4895881;29;20507;-72
2022/07/13 06:02:46;;;;;;;6.45;3.15;;;;;;;21.72;63.58;101853.00;4895847;29;20044;-71
2022/07/13 06:05:11;;;;;;;6.72;3.60;;;;;;;21.74;63.34;101856.28;4895807;29;20205;-72
2022/07/13 06:07:37;;;;;;;5.78;3.78;;;;;;;21.80;63.29;101863.47;4895822;29;20504;-72
2022/07/13 06:10:04;;;;;;;12.73;4.38;;;;;;;21.84;63.57;101856.47;4895743;29;20173;-72
2022/07/13 06:12:29;;;;;;;5.75;3.13;;;;;;;21.87;63.32;101842.38;4895598;29;20131;-72
2022/07/13 06:14:55;;;;;;;8.50;3.70;;;;;;;21.99;62.95;101853.97;4895730;29;20118;-72
2022/07/13 06:17:21;;;;;;;6.72;3.75;;;;;;;22.07;62.64;101850.84;4895618;29;20043;-72
2022/07/13 06:19:47;;;;;;;7.00;3.20;;;;;;;22.17;62.51;101852.88;4895310;29;20044;-72
2022/07/13 06:22:12;;;;;;;5.70;3.42;;;;;;;22.22;62.50;101852.19;4895562;29;20041;-72
2022/07/13 06:24:38;;;;;;;9.10;5.50;;;;;;;22.27;62.33;101854.97;4895354;29;20071;-72
2022/07/13 06:27:04;;;;;;;12.38;4.25;;;;;;;22.33;62.17;101864.81;4895445;29;20036;-72
2022/07/13 06:29:30;;;;;;;9.80;4.05;;;;;;;22.39;62.13;101843.97;4895499;29;20056;-72
2022/07/13 06:31:55;;;;;;;7.30;3.25;;;;;;;22.45;62.12;101851.09;4895289;29;20451;-72
2022/07/13 06:34:21;;;;;;;12.48;3.63;;;;;;;22.52;61.79;101849.03;4895094;29;20396;-72
2022/07/13 06:36:46;;;;;;;8.60;3.47;;;;;;;22.60;62.49;101854.03;4895366;29;20048;-72
2022/07/13 06:39:11;;;;;;;6.07;3.22;;;;;;;22.71;61.51;101852.25;4895319;29;20090;-72
2022/07/13 06:41:37;;;;;;;6.60;4.05;;;;;;;22.79;61.41;101842.81;4895268;29;20405;-72
2022/07/13 06:44:02;;;;;;;9.95;3.70;;;;;;;22.84;60.80;101846.41;4895327;29;20044;-72
2022/07/13 06:46:28;;;;;;;7.82;3.15;;;;;;;22.82;62.23;101836.88;4895134;29;20072;-72
2022/07/13 06:48:53;;;;;;;7.65;5.05;;;;;;;22.86;61.77;101833.41;4895099;29;20064;-72
2022/07/13 06:51:19;;;;;;;4.10;2.88;;;;;;;22.99;62.70;101831.38;4894969;29;20137;-72
2022/07/13 06:53:44;;;;;;;10.45;4.13;;;;;;;23.09;60.70;101845.09;4894992;29;20080;-70
2022/07/13 06:56:09;;;;;;;9.90;3.70;;;;;;;23.14;60.75;101837.81;4894860;29;20137;-71
2022/07/13 06:58:35;;;;;;;5.18;3.40;;;;;;;23.19;60.94;101843.31;4894889;29;20037;-72
2022/07/13 07:01:01;;;;;;;9.10;4.30;;;;;;;23.16;60.03;101842.97;4894895;29;20111;-70
2022/07/13 07:03:26;;;;;;;7.78;4.63;;;;;;;23.13;60.19;101838.06;4894876;29;20086;-70
2022/07/13 07:05:51;;;;;;;9.35;3.95;;;;;;;23.15;61.45;101844.06;4894822;29;20233;-70
2022/07/13 07:08:17;;;;;;;9.00;4.10;;;;;;;23.19;61.01;101848.75;4894738;29;20032;-70
2022/07/13 07:10:42;;;;;;;11.30;5.13;;;;;;;23.26;61.21;101834.91;4894724;29;20036;-70
2022/07/13 07:13:08;;;;;;;7.60;3.55;;;;;;;23.30;61.03;101846.94;4894718;29;20396;-70
2022/07/13 07:15:34;;;;;;;8.38;4.10;;;;;;;23.41;61.47;101856.84;4877955;29;20033;-70
2022/07/13 07:17:59;;;;;;;7.28;4.13;;;;;;;23.57;61.38;101846.09;4894565;29;20040;-70
2022/07/13 07:20:25;;;;;;;6.50;4.70;;;;;;;23.70;60.33;101853.00;4894460;29;20036;-70
2022/07/13 07:22:50;;;;;;;12.60;4.35;;;;;;;23.72;59.48;101850.88;4894516;29;20044;-70
2022/07/13 07:25:16;;;;;;;9.88;4.38;;;;;;;23.72;60.43;101848.16;4894617;29;20059;-72
2022/07/13 07:27:42;;;;;;;9.05;4.25;;;;;;;23.67;59.19;101850.81;4894395;29;20031;-71
2022/07/13 07:30:08;;;;;;;7.50;3.95;;;;;;;23.58;59.70;101851.28;4893831;29;20037;-70
2022/07/13 07:32:33;;;;;;;12.18;4.63;;;;;;;23.52;60.85;101846.03;4894440;29;20032;-70
2022/07/13 07:34:58;;;;;;;8.60;4.25;;;;;;;23.57;61.82;101843.38;4894058;29;20681;-70
2022/07/13 07:37:24;;;;;;;9.30;4.95;;;;;;;23.69;60.80;101838.56;4894180;29;20040;-71
2022/07/13 07:39:51;;;;;;;7.82;4.03;;;;;;;23.82;60.53;101838.16;4894220;29;20037;-72
2022/07/13 07:42:17;;;;;;;11.23;4.85;;;;;;;23.89;61.15;101839.81;4894300;29;20103;-71
2022/07/13 07:44:43;;;;;;;8.00;4.28;;;;;;;23.84;60.78;101838.72;4894769;29;20492;-70
2022/07/13 07:47:08;;;;;;;11.00;3.83;;;;;;;23.90;61.57;101847.75;4894229;29;20043;-70
2022/07/13 07:49:34;;;;;;;10.80;4.68;;;;;;;23.90;60.61;101839.56;4894259;29;21017;-70
2022/07/13 07:52:00;;;;;;;7.93;4.38;;;;;;;24.00;60.83;101838.81;4894103;29;20029;-71
2022/07/13 07:54:25;;;;;;;7.55;4.45;;;;;;;24.17;61.86;101833.19;4894324;29;20542;-73
2022/07/13 07:56:51;;;;;;;6.63;4.70;;;;;;;24.30;61.09;101830.00;4894010;29;20040;-71
2022/07/13 07:59:16;;;;;;;10.05;5.32;;;;;;;24.41;61.15;101830.84;4894011;29;20508;-72
2022/07/13 08:01:42;;;;;;;7.10;4.78;;;;;;;24.48;60.42;101824.09;4894147;29;20028;-69
2022/07/13 08:04:07;;;;;;;8.25;4.43;;;;;;;24.52;60.91;101834.47;4861706;29;20489;-71
2022/07/13 08:06:33;;;;;;;11.75;4.97;;;;;;;24.46;60.13;101834.44;4893994;29;20473;-70
2022/07/13 08:08:59;;;;;;;11.80;6.45;;;;;;;24.44;59.81;101830.31;4893940;29;20047;-71
2022/07/13 08:11:25;;;;;;;8.52;5.15;;;;;;;24.49;60.12;101831.19;4894069;29;20072;-71
2022/07/13 08:13:51;;;;;;;8.90;4.60;;;;;;;24.57;60.05;101835.31;4894049;29;20024;-71
2022/07/13 08:16:19;;;;;;;7.35;4.15;;;;;;;24.72;61.57;101845.47;4894151;29;20579;-71
2022/07/13 08:18:46;;;;;;;7.70;4.32;;;;;;;25.19;59.74;101840.97;4894083;29;20032;-71
2022/07/13 08:21:11;;;;;;;6.03;4.55;;;;;;;25.96;57.36;101833.59;4893817;29;20032;-71
2022/07/13 08:23:52;;;;;;;11.80;4.95;;;;;;;25.78;57.10;101837.69;4893810;29;20036;-71
2022/07/13 08:26:27;;;;;;;8.38;4.90;;;;;;;25.53;59.01;101838.53;4893649;29;20101;-72
2022/07/13 08:28:53;;;;;;;12.30;5.78;;;;;;;25.48;58.25;101833.91;4893797;29;20036;-72
2022/07/13 08:31:22;;;;;;;10.85;5.18;;;;;;;25.51;58.35;101833.34;4893828;29;20128;-72
2022/07/13 08:39:21;;;;;;;10.02;4.68;;;;;;;26.36;57.34;101837.34;4893799;29;20181;-72
2022/07/13 08:41:48;;;;;;;9.07;4.97;;;;;;;26.55;56.98;101827.44;4895215;29;20123;-72
2022/07/13 08:44:14;;;;;;;27.40;5.95;;;;;;;26.83;57.60;101831.41;4897265;29;20051;-72
2022/07/13 08:46:40;;;;;;;14.27;5.38;;;;;;;26.73;57.25;101836.94;4897505;29;20032;-72
2022/07/13 08:49:07;;;;;;;7.90;4.63;;;;;;;26.51;56.48;101841.91;4897206;29;20854;-72
2022/07/13 08:51:32;;;;;;;15.00;4.95;;;;;;;26.33;57.21;101837.88;4897273;29;20028;-72
2022/07/13 08:53:59;;;;;;;6.15;3.58;;;;;;;26.08;57.81;101831.41;4897258;29;20040;-72
2022/07/13 08:56:25;;;;;;;7.28;3.83;;;;;;;25.85;58.77;101843.75;4897227;29;20040;-72
2022/07/13 08:58:52;;;;;;;8.40;4.32;;;;;;;25.63;58.68;101841.28;4896844;29;20048;-72
2022/07/13 09:01:19;;;;;;;8.70;4.18;;;;;;;25.50;58.52;101856.31;4897100;29;20032;-72
2022/07/13 09:03:44;;;;;;;7.85;3.85;;;;;;;25.41;58.14;101841.53;4897105;29;20043;-72
2022/07/13 09:06:38;;;;;;;8.38;4.30;;;;;;;25.42;58.87;101848.66;4897035;29;20505;-72
2022/07/13 09:09:07;;;;;;;11.10;4.22;;;;;;;25.46;59.19;101844.28;4896839;29;20460;-72
2022/07/13 09:11:33;;;;;;;10.57;4.32;;;;;;;25.53;58.42;101839.38;4896936;29;20036;-72
2022/07/13 09:13:58;;;;;;;7.03;3.47;;;;;;;25.75;57.48;101850.03;4896852;29;20088;-72
2022/07/13 09:16:26;;;;;;;6.07;3.60;;;;;;;25.99;58.23;101849.44;4896639;29;20033;-72
2022/07/13 09:18:56;;;;;;;5.28;3.60;;;;;;;26.28;59.29;101849.69;4896808;29;20036;-72
2022/07/13 09:21:23;;;;;;;11.13;3.80;;;;;;;26.47;57.41;101860.00;4896689;29;20036;-72
2022/07/13 09:23:54;;;;;;;7.03;3.60;;;;;;;26.45;56.15;101861.09;4896732;29;20039;-72
2022/07/13 09:26:21;;;;;;;5.72;3.20;;;;;;;26.45;55.23;101854.81;4896644;29;20443;-72
2022/07/13 09:28:49;;;;;;;6.80;3.33;;;;;;;26.38;55.72;101848.81;4896565;29;20044;-72
2022/07/13 09:31:16;;;;;;;6.43;4.25;;;;;;;26.38;55.69;101855.13;4896242;29;20036;-72
2022/07/13 09:33:43;;;;;;;5.13;3.05;;;;;;;26.39;53.65;101864.13;4896588;29;20556;-72
2022/07/13 09:36:18;;;;;;;10.48;3.85;;;;;;;26.37;53.11;101860.84;4896343;29;20044;-72
2022/07/13 09:38:51;;;;;;;6.80;4.15;;;;;;;26.32;54.12;101874.56;4896061;29;20020;-72
2022/07/13 09:41:26;;;;;;;8.18;3.50;;;;;;;26.36;54.52;101867.44;4896585;29;20047;-68
2022/07/13 09:47:04;;;;;;;6.85;3.38;;;;;;;26.33;55.54;101866.06;4896620;29;20063;-68
2022/07/13 09:49:39;;;;;;;12.13;5.65;;;;;;;26.24;54.57;101865.00;4896428;29;20036;-68
2022/07/13 09:52:07;;;;;;;7.50;3.50;;;;;;;26.14;53.94;101868.56;4895915;29;20039;-68
2022/07/13 09:54:35;;;;;;;8.35;3.38;;;;;;;26.03;55.23;101888.81;4895588;29;20115;-68
2022/07/13 09:57:04;;;;;;;6.00;3.17;;;;;;;25.88;54.95;101877.91;4896215;29;20555;-68
2022/07/13 09:59:30;;;;;;;4.50;3.78;;;;;;;25.76;54.36;101873.50;4895533;29;20060;-68
2022/07/13 10:01:56;;;;;;;5.88;3.58;;;;;;;25.58;54.41;101882.25;4895953;29;20074;-68
2022/07/13 10:04:22;;;;;;;8.18;4.15;;;;;;;25.44;55.41;101872.94;4895911;29;20068;-68
2022/07/13 10:06:49;;;;;;;7.63;3.85;;;;;;;25.40;56.04;101877.34;4895917;29;20040;-68
2022/07/13 10:09:18;;;;;;;7.63;3.80;;;;;;;25.42;56.97;101875.16;4878929;29;20064;-68
2022/07/13 10:11:44;;;;;;;8.48;3.63;;;;;;;25.51;57.00;101868.03;4895728;29;20062;-68
2022/07/13 10:14:10;;;;;;;5.68;3.88;;;;;;;25.72;56.35;101864.22;4896091;29;20040;-71
2022/07/13 10:16:36;;;;;;;9.93;4.65;;;;;;;26.10;57.47;101870.22;4895562;29;20388;-72
2022/07/13 10:19:04;;;;;;;6.47;3.97;;;;;;;26.33;56.13;101873.44;4895651;29;20037;-72
2022/07/13 10:21:38;;;;;;;10.73;4.38;;;;;;;26.38;53.59;101878.91;4895598;29;20033;-71
2022/07/13 10:24:14;;;;;;;5.95;3.95;;;;;;;26.40;54.18;101871.25;4895406;29;20032;-71
2022/07/13 10:26:39;;;;;;;5.32;3.10;;;;;;;26.53;52.21;101878.06;4895593;29;20391;-72
2022/07/13 10:29:07;;;;;;;5.65;3.20;;;;;;;26.68;53.23;101869.81;4878591;29;20032;-72
2022/07/13 10:31:33;;;;;;;4.90;3.22;;;;;;;26.89;52.59;101865.03;4895523;29;20032;-72
2022/07/13 10:34:04;;;;;;;7.85;3.50;;;;;;;26.87;53.67;101868.06;4895274;29;21027;-72
2022/07/13 10:36:48;;;;;;;3.30;2.35;;;;;;;26.69;48.71;101876.09;4895297;29;20036;-71
2022/07/13 10:39:14;;;;;;;7.00;3.10;;;;;;;26.51;50.16;101872.00;4895251;29;20023;-71
2022/07/13 10:41:57;;;;;;;4.75;2.85;;;;;;;26.56;49.93;101881.06;4894835;29;20484;-71
2022/07/13 10:44:38;;;;;;;3.25;2.95;;;;;;;26.52;49.16;101882.72;4895245;29;20069;-71
2022/07/13 10:47:08;;;;;;;4.80;2.30;;;;;;;26.65;49.13;101871.19;4895194;29;20039;-71
2022/07/13 10:49:36;;;;;;;3.92;2.90;;;;;;;27.07;48.86;101877.28;4895139;29;20056;-72
2022/07/13 10:52:25;;;;;;;4.72;3.05;;;;;;;27.16;48.94;101882.97;4895117;29;20040;-71
2022/07/13 10:55:07;;;;;;;4.10;2.75;;;;;;;27.23;49.22;101878.03;4895303;29;20111;-71
2022/07/13 10:57:34;;;;;;;3.55;2.78;;;;;;;27.12;47.26;101882.72;4895089;29;20472;-71
2022/07/13 11:00:01;;;;;;;7.07;2.75;;;;;;;26.93;47.25;101879.78;4895229;29;20124;-72
2022/07/13 11:02:49;;;;;;;6.78;2.88;;;;;;;26.85;49.52;101889.44;4894998;29;20429;-72
2022/07/13 11:05:17;;;;;;;6.43;2.72;;;;;;;26.78;48.68;101885.38;4894499;29;20068;-72
2022/07/13 11:07:45;;;;;;;6.15;2.88;;;;;;;26.73;49.42;101886.19;4894859;29;20033;-74
2022/07/13 11:10:30;;;;;;;4.85;2.50;;;;;;;26.83;49.48;101879.88;4894836;29;20056;-72
2022/07/13 11:13:03;;;;;;;5.50;2.53;;;;;;;27.08;48.34;101879.72;4894961;29;20028;-72
2022/07/13 11:15:46;;;;;;;3.38;2.65;;;;;;;27.48;50.04;101887.97;4894902;29;20091;-72
2022/07/13 11:18:20;;;;;;;4.00;2.58;;;;;;;27.55;49.08;101891.22;4894696;29;20016;-72
2022/07/13 11:21:02;;;;;;;5.13;2.50;;;;;;;27.48;46.64;101897.03;4894696;29;20029;-72
2022/07/13 11:26:34;;;;;;;4.13;2.33;;;;;;;27.65;44.19;101895.81;4894649;29;20055;-72
2022/07/13 11:29:18;;;;;;;;;;;;;;;27.67;46.08;101888.13;4895243;29;20044;-71